createdAt,value
2018-10-19T00:02:41.640Z,101314.77
2018-10-19T00:05:24.153Z,101304.84
2018-10-19T00:08:07.358Z,101303.89
2018-10-19T00:10:49.997Z,101302.94
2018-10-19T00:13:32.702Z,101301.70
2018-10-19T00:16:15.520Z,101297.80
2018-10-19T00:18:58.346Z,101291.33
2018-10-19T00:21:41.787Z,101300.89
2018-10-19T00:24:24.418Z,101300.08
2018-10-19T00:27:07.555Z,101300.72
2018-10-19T00:29:50.615Z,101299.34
2018-10-19T00:32:33.849Z,101295.47
2018-10-19T00:35:16.689Z,101298.12
2018-10-19T00:37:59.903Z,101299.07
2018-10-19T00:40:42.714Z,101297.65
2018-10-19T00:43:25.409Z,101291.69
2018-10-19T00:46:08.752Z,101293.38
2018-10-19T00:48:51.473Z,101285.28
2018-10-19T00:51:34.180Z,101286.92
2018-10-19T00:54:18.049Z,101278.56
2018-10-19T00:57:01.894Z,101277.19
2018-10-19T00:59:44.478Z,101285.84
2018-10-19T01:02:28.050Z,101282.70
2018-10-19T01:05:10.778Z,101280.05
2018-10-19T01:07:53.462Z,101279.03
2018-10-19T01:10:37.124Z,101278.90
2018-10-19T01:13:20.453Z,101277.42
2018-10-19T01:16:03.517Z,101284.66
2018-10-19T01:18:46.750Z,101281.52
2018-10-19T01:21:29.286Z,101275.52
2018-10-19T01:24:12.084Z,101276.98
2018-10-19T01:26:55.364Z,101275.08
2018-10-19T01:29:38.856Z,101277.10
2018-10-19T01:32:22.502Z,101279.62
2018-10-19T01:35:05.739Z,101275.89
2018-10-19T01:37:48.025Z,101282.86
2018-10-19T01:40:31.261Z,101285.20
2018-10-19T01:43:14.757Z,101291.16
2018-10-19T01:45:58.849Z,101287.21
2018-10-19T01:48:41.941Z,101288.80
2018-10-19T01:51:25.075Z,101291.25
2018-10-19T01:54:08.704Z,101286.84
2018-10-19T01:56:52.097Z,101292.22
2018-10-19T01:59:35.349Z,101298.49
2018-10-19T02:02:19.198Z,101292.83
2018-10-19T02:05:01.781Z,101293.17
2018-10-19T02:07:44.904Z,101299.89
2018-10-19T02:10:28.262Z,101301.56
2018-10-19T02:13:11.414Z,101298.92
2018-10-19T02:15:55.029Z,101296.77
2018-10-19T02:18:38.002Z,101300.24
2018-10-19T02:21:20.566Z,101299.68
2018-10-19T02:24:04.180Z,101308.20
2018-10-19T02:26:47.001Z,101296.41
2018-10-19T02:29:30.237Z,101304.93
2018-10-19T02:32:14.310Z,101303.42
2018-10-19T02:34:57.882Z,101303.73
2018-10-19T02:37:41.444Z,101301.13
2018-10-19T02:40:43.858Z,101302.52
2018-10-19T02:43:26.337Z,101302.38
2018-10-19T02:46:09.670Z,101295.78
2018-10-19T02:48:53.409Z,101297.03
2018-10-19T02:51:37.317Z,101295.38
2018-10-19T02:54:19.971Z,101297.38
2018-10-19T02:57:03.715Z,101292.42
2018-10-19T02:59:46.621Z,101292.00
2018-10-19T03:02:29.543Z,101288.26
2018-10-19T03:05:13.479Z,101289.24
2018-10-19T03:07:56.707Z,101297.56
2018-10-19T03:10:39.540Z,101300.12
2018-10-19T03:13:22.977Z,101301.08
2018-10-19T03:16:05.758Z,101303.34
2018-10-19T03:18:48.611Z,101301.00
2018-10-19T03:21:31.912Z,101299.80
2018-10-19T03:24:15.083Z,101290.72
2018-10-19T03:26:57.889Z,101295.41
2018-10-19T03:29:41.055Z,101291.51
2018-10-19T03:32:23.918Z,101289.51
2018-10-19T03:35:07.663Z,101286.11
2018-10-19T03:37:50.682Z,101285.77
2018-10-19T03:40:33.417Z,101288.59
2018-10-19T03:43:16.613Z,101284.85
2018-10-19T03:45:59.953Z,101287.57
2018-10-19T03:48:43.083Z,101285.97
2018-10-19T03:51:26.190Z,101283.61
2018-10-19T03:54:08.949Z,101288.13
2018-10-19T03:56:51.920Z,101286.11
2018-10-19T03:59:35.348Z,101285.34
2018-10-19T04:02:17.777Z,101293.00
2018-10-19T04:05:00.632Z,101291.78
2018-10-19T04:07:43.518Z,101294.87
2018-10-19T04:10:26.434Z,101299.75
2018-10-19T04:13:09.270Z,101300.33
2018-10-19T04:15:52.157Z,101298.37
2018-10-19T04:18:35.069Z,101298.02
2018-10-19T04:21:18.111Z,101303.52
2018-10-19T04:24:01.693Z,101300.49
2018-10-19T04:26:44.145Z,101295.44
2018-10-19T04:29:27.827Z,101295.17
2018-10-19T04:32:10.817Z,101295.91
2018-10-19T04:34:53.827Z,101295.43
2018-10-19T04:37:36.940Z,101296.20
2018-10-19T04:40:21.714Z,101298.19
2018-10-19T04:43:04.424Z,101300.41
2018-10-19T04:45:48.205Z,101304.20
2018-10-19T04:48:31.379Z,101304.59
2018-10-19T04:51:14.455Z,101301.11
2018-10-19T04:53:57.738Z,101305.28
2018-10-19T04:56:40.374Z,101305.31
2018-10-19T04:59:23.582Z,101299.58
2018-10-19T05:02:06.900Z,101298.29
2018-10-19T05:04:50.208Z,101302.88
2018-10-19T05:07:33.045Z,101306.39
2018-10-19T05:10:16.408Z,101303.44
2018-10-19T05:12:59.278Z,101305.66
2018-10-19T05:15:42.142Z,101310.67
2018-10-19T05:18:25.185Z,101314.95
2018-10-19T05:21:08.086Z,101313.62
2018-10-19T05:23:51.423Z,101322.67
2018-10-19T05:26:34.104Z,101320.61
2018-10-19T05:29:17.335Z,101322.32
2018-10-19T05:32:00.499Z,101321.19
2018-10-19T05:34:43.954Z,101318.94
2018-10-19T05:37:26.505Z,101314.66
2018-10-19T05:40:10.105Z,101314.63
2018-10-19T05:42:54.008Z,101316.23
2018-10-19T05:45:37.663Z,101311.56
2018-10-19T05:48:20.973Z,101318.88
2018-10-19T05:51:04.877Z,101319.77
2018-10-19T05:53:47.949Z,101321.93
2018-10-19T05:56:31.025Z,101320.32
2018-10-19T05:59:14.113Z,101323.52
2018-10-19T06:01:57.627Z,101324.07
2018-10-19T06:04:40.805Z,101326.95
2018-10-19T06:07:24.845Z,101322.45
2018-10-19T06:10:07.989Z,101328.23
2018-10-19T06:12:50.845Z,101321.88
2018-10-19T06:15:34.157Z,101319.57
2018-10-19T06:18:16.750Z,101326.11
2018-10-19T06:21:00.117Z,101328.59
2018-10-19T06:23:43.321Z,101332.20
2018-10-19T06:26:26.019Z,101330.48
2018-10-19T06:29:08.458Z,101333.15
2018-10-19T06:31:51.449Z,101338.01
2018-10-19T06:34:34.245Z,101338.16
2018-10-19T06:37:16.787Z,101340.31
2018-10-19T06:39:59.411Z,101340.22
2018-10-19T06:42:42.618Z,101339.31
2018-10-19T06:45:25.836Z,101343.88
2018-10-19T06:48:08.782Z,101338.92
2018-10-19T06:50:52.299Z,101343.99
2018-10-19T06:53:34.689Z,101342.14
2018-10-19T06:56:17.683Z,101339.78
2018-10-19T06:59:01.272Z,101347.76
2018-10-19T07:01:45.525Z,101342.02
2018-10-19T07:04:29.029Z,101348.41
2018-10-19T07:07:12.703Z,101351.58
2018-10-19T07:09:56.001Z,101352.44
2018-10-19T07:12:38.856Z,101357.51
2018-10-19T07:15:21.420Z,101359.69
2018-10-19T07:18:06.873Z,101370.92
2018-10-19T07:20:50.120Z,101374.88
2018-10-19T07:23:32.741Z,101374.28
2018-10-19T07:26:15.839Z,101376.08
2018-10-19T07:28:59.578Z,101372.53
2018-10-19T07:31:42.849Z,101373.61
2018-10-19T07:34:25.966Z,101366.40
2018-10-19T07:37:08.813Z,101364.63
2018-10-19T07:39:51.620Z,101375.22
2018-10-19T07:42:34.643Z,101375.87
2018-10-19T07:45:17.973Z,101378.59
2018-10-19T07:48:00.615Z,101380.53
2018-10-19T07:50:44.535Z,101375.77
2018-10-19T07:53:27.335Z,101373.49
2018-10-19T07:56:10.000Z,101374.25
2018-10-19T07:58:52.867Z,101370.05
2018-10-19T08:01:35.289Z,101378.59
2018-10-19T08:04:20.764Z,101370.14
2018-10-19T08:07:03.380Z,101375.63
2018-10-19T08:09:46.578Z,101370.82
2018-10-19T08:12:29.957Z,101371.33
2018-10-19T08:15:13.025Z,101384.23
2018-10-19T08:17:55.443Z,101384.19
2018-10-19T08:20:38.985Z,101375.64
2018-10-19T08:23:22.197Z,101390.52
2018-10-19T08:26:05.082Z,101384.56
2018-10-19T08:28:48.049Z,101377.19
2018-10-19T08:31:30.241Z,101377.20
2018-10-19T08:34:13.700Z,101377.12
2018-10-19T08:36:56.398Z,101378.47
2018-10-19T08:39:38.945Z,101387.43
2018-10-19T08:42:21.835Z,101388.55
2018-10-19T08:45:04.591Z,101383.38
2018-10-19T08:47:48.088Z,101389.92
2018-10-19T08:50:32.162Z,101385.16
2018-10-19T08:53:15.556Z,101385.86
2018-10-19T08:55:58.481Z,101376.86
2018-10-19T08:58:41.392Z,101383.97
2018-10-19T09:01:24.517Z,101375.80
2018-10-19T09:04:07.297Z,101379.61
2018-10-19T09:06:50.650Z,101384.41
2018-10-19T09:09:33.465Z,101385.67
2018-10-19T09:12:16.727Z,101387.92
2018-10-19T09:15:09.513Z,101384.89
2018-10-19T09:17:52.169Z,101380.58
2018-10-19T09:20:35.355Z,101380.63
2018-10-19T09:23:27.145Z,101372.80
2018-10-19T09:26:09.449Z,101368.39
2018-10-19T09:28:53.302Z,101371.10
2018-10-19T09:31:36.368Z,101368.08
2018-10-19T09:34:19.405Z,101363.54
2018-10-19T09:37:03.661Z,101364.67
2018-10-19T09:39:46.388Z,101360.02
2018-10-19T09:42:29.505Z,101358.59
2018-10-19T09:45:12.716Z,101358.59
2018-10-19T09:47:55.286Z,101355.59
2018-10-19T09:50:38.457Z,101356.18
2018-10-19T09:53:21.704Z,101356.44
2018-10-19T09:56:05.467Z,101348.77
2018-10-19T09:58:48.334Z,101343.24
2018-10-19T10:01:31.177Z,101345.30
2018-10-19T10:04:14.094Z,101344.96
2018-10-19T10:06:56.946Z,101348.32
2018-10-19T10:09:40.127Z,101347.73
2018-10-19T10:12:27.161Z,101354.38
2018-10-19T10:15:10.331Z,101348.52
2018-10-19T10:17:52.585Z,101348.59
2018-10-19T10:20:35.193Z,101347.05
2018-10-19T10:23:27.785Z,101345.47
2018-10-19T10:26:18.809Z,101342.16
2018-10-19T10:29:01.290Z,101344.66
2018-10-19T10:31:44.618Z,101343.52
2018-10-19T10:34:27.824Z,101342.09
2018-10-19T10:37:10.643Z,101342.23
2018-10-19T10:39:53.582Z,101340.34
2018-10-19T10:42:36.793Z,101339.04
2018-10-19T10:45:19.673Z,101330.66
2018-10-19T10:48:02.418Z,101335.59
2018-10-19T10:50:46.168Z,101336.64
2018-10-19T10:53:29.314Z,101334.81
2018-10-19T10:56:12.304Z,101326.02
2018-10-19T10:58:55.661Z,101327.34
2018-10-19T11:01:39.089Z,101328.90
2018-10-19T11:04:22.197Z,101322.81
2018-10-19T11:07:05.643Z,101315.26
2018-10-19T11:09:49.144Z,101316.78
2018-10-19T11:12:31.758Z,101308.19
2018-10-19T11:15:15.541Z,101302.47
2018-10-19T11:17:58.032Z,101304.55
2018-10-19T11:20:41.959Z,101295.22
2018-10-19T11:23:25.428Z,101298.25
2018-10-19T11:26:09.644Z,101291.85
2018-10-19T11:28:52.765Z,101290.36
2018-10-19T11:31:36.196Z,101293.42
2018-10-19T11:34:19.658Z,101296.33
2018-10-19T11:37:03.220Z,101284.71
2018-10-19T11:39:58.186Z,101285.90
2018-10-19T11:42:41.193Z,101284.72
2018-10-19T11:45:34.777Z,101280.63
2018-10-19T11:48:18.365Z,101279.55
2018-10-19T11:51:01.316Z,101272.09
2018-10-19T11:53:44.342Z,101271.95
2018-10-19T11:56:27.880Z,101274.54
2018-10-19T11:59:11.650Z,101273.14
2018-10-19T12:01:54.529Z,101270.22
2018-10-19T12:04:37.543Z,101271.92
2018-10-19T12:07:20.985Z,101270.05
2018-10-19T12:10:03.767Z,101268.88
2018-10-19T12:12:46.306Z,101275.09
2018-10-19T12:15:29.985Z,101266.78
2018-10-19T12:18:13.274Z,101275.07
2018-10-19T12:20:56.692Z,101268.75
2018-10-19T12:23:40.241Z,101272.91
2018-10-19T12:26:23.742Z,101275.03
2018-10-19T12:29:06.416Z,101266.12
2018-10-19T12:32:15.644Z,101263.31
2018-10-19T12:36:14.150Z,101269.37
2018-10-19T12:38:56.825Z,101259.83
2018-10-19T12:41:40.937Z,101254.34
2018-10-19T12:44:23.490Z,101254.52
2018-10-19T12:47:17.637Z,101262.70
2018-10-19T12:50:01.104Z,101258.77
2018-10-19T12:52:43.596Z,101257.65
2018-10-19T12:55:27.335Z,101251.16
2018-10-19T12:58:10.661Z,101252.36
2018-10-19T13:01:00.785Z,101251.02
2018-10-19T13:03:49.761Z,101245.65
2018-10-19T13:06:33.247Z,101245.00
2018-10-19T13:09:15.995Z,101251.77
2018-10-19T13:11:59.358Z,101246.03
2018-10-19T13:14:42.862Z,101247.74
2018-10-19T13:17:25.248Z,101236.70
2018-10-19T13:20:08.254Z,101239.08
2018-10-19T13:22:51.000Z,101240.12
2018-10-19T13:25:33.784Z,101236.53
2018-10-19T13:28:58.832Z,101228.45
2018-10-19T13:31:55.275Z,101234.05
2018-10-19T13:34:38.883Z,101228.17
2018-10-19T13:37:21.630Z,101228.73
2018-10-19T13:40:04.569Z,101228.36
2018-10-19T13:42:47.824Z,101225.74
2018-10-19T13:45:30.791Z,101225.55
2018-10-19T13:48:14.657Z,101224.67
2018-10-19T13:50:57.727Z,101230.33
2018-10-19T13:53:40.814Z,101227.14
2018-10-19T13:56:23.517Z,101223.14
2018-10-19T13:59:07.352Z,101216.86
2018-10-19T14:01:51.565Z,101217.53
2018-10-19T14:04:35.337Z,101221.59
2018-10-19T14:07:18.281Z,101208.60
2018-10-19T14:10:03.442Z,101203.11
2018-10-19T14:12:46.222Z,101206.94
2018-10-19T14:15:29.403Z,101204.22
2018-10-19T14:18:13.773Z,101193.26
2018-10-19T14:20:56.714Z,101190.69
2018-10-19T14:23:47.491Z,101185.94
2018-10-19T14:26:30.812Z,101186.07
2018-10-19T14:29:15.034Z,101186.31
2018-10-19T14:31:58.345Z,101182.70
2018-10-19T14:34:41.820Z,101182.19
2018-10-19T14:37:25.934Z,101185.45
2018-10-19T14:40:12.058Z,101191.59
2018-10-19T14:42:56.074Z,101192.84
2018-10-19T14:45:39.923Z,101187.00
2018-10-19T14:48:22.377Z,101187.75
2018-10-19T14:51:05.777Z,101194.48
2018-10-19T14:53:48.820Z,101192.87
2018-10-19T14:56:34.181Z,101196.52
2018-10-19T14:59:20.243Z,101190.44
2018-10-19T15:02:06.936Z,101194.56
2018-10-19T15:04:50.178Z,101206.16
2018-10-19T15:07:37.136Z,101202.53
2018-10-19T15:10:22.824Z,101209.22
2018-10-19T15:13:08.184Z,101208.52
2018-10-19T15:15:51.453Z,101211.53
2018-10-19T15:18:34.900Z,101215.11
2018-10-19T15:21:18.114Z,101217.30
2018-10-19T15:24:01.052Z,101213.80
2018-10-19T15:26:44.768Z,101213.33
2018-10-19T15:29:27.628Z,101214.15
2018-10-19T15:32:10.493Z,101213.01
2018-10-19T15:34:53.649Z,101211.77
2018-10-19T15:37:37.078Z,101212.19
2018-10-19T15:40:19.613Z,101217.80
2018-10-19T15:43:04.514Z,101219.10
2018-10-19T15:45:46.861Z,101218.34
2018-10-19T15:48:30.013Z,101217.45
2018-10-19T15:51:13.975Z,101215.81
2018-10-19T15:53:56.593Z,101210.63
2018-10-19T15:56:39.766Z,101215.58
2018-10-19T15:59:23.114Z,101227.30
2018-10-19T16:02:06.056Z,101227.31
2018-10-19T16:04:49.346Z,101217.91
2018-10-19T16:07:32.269Z,101230.13
2018-10-19T16:10:15.604Z,101237.09
2018-10-19T16:12:58.205Z,101250.11
2018-10-19T16:15:40.633Z,101247.12
2018-10-19T16:18:23.103Z,101254.48
2018-10-19T16:21:05.848Z,101258.40
2018-10-19T16:23:48.935Z,101260.13
2018-10-19T16:26:32.744Z,101262.31
2018-10-19T16:29:15.417Z,101267.94
2018-10-19T16:31:58.186Z,101264.05
2018-10-19T16:34:41.691Z,101266.27
2018-10-19T16:37:24.570Z,101262.83
2018-10-19T16:40:07.766Z,101272.41
2018-10-19T16:42:50.833Z,101282.78
2018-10-19T16:45:33.631Z,101276.75
2018-10-19T16:48:17.101Z,101278.92
2018-10-19T16:51:00.450Z,101277.16
2018-10-19T16:53:43.489Z,101268.06
2018-10-19T16:56:26.030Z,101281.95
2018-10-19T16:59:09.540Z,101279.39
2018-10-19T17:01:52.581Z,101283.25
2018-10-19T17:04:35.857Z,101291.50
2018-10-19T17:07:19.229Z,101286.73
2018-10-19T17:10:01.751Z,101291.50
2018-10-19T17:12:44.471Z,101291.07
2018-10-19T17:15:28.394Z,101289.77
2018-10-19T17:18:11.642Z,101295.39
2018-10-19T17:20:56.126Z,101293.66
2018-10-19T17:23:39.667Z,101290.20
2018-10-19T17:26:22.645Z,101295.39
2018-10-19T17:29:06.917Z,101303.19
2018-10-19T17:31:49.196Z,101307.95
2018-10-19T17:34:32.125Z,101312.68
2018-10-19T17:37:16.518Z,101318.34
2018-10-19T17:39:59.107Z,101317.88
2018-10-19T17:42:42.413Z,101323.08
2018-10-19T17:45:26.050Z,101323.07
2018-10-19T17:48:09.291Z,101332.19
2018-10-19T17:50:52.569Z,101333.91
2018-10-19T17:53:35.700Z,101336.07
2018-10-19T17:56:18.766Z,101335.20
2018-10-19T17:59:01.995Z,101337.34
2018-10-19T18:01:54.316Z,101338.23
2018-10-19T18:04:37.130Z,101342.53
2018-10-19T18:07:19.721Z,101341.23
2018-10-19T18:10:02.384Z,101349.89
2018-10-19T18:12:46.020Z,101348.55
2018-10-19T18:15:29.203Z,101338.63
2018-10-19T18:18:12.036Z,101341.64
2018-10-19T18:20:54.934Z,101337.75
2018-10-19T18:23:37.807Z,101348.04
2018-10-19T18:26:20.905Z,101354.80
2018-10-19T18:29:03.546Z,101362.55
2018-10-19T18:31:46.599Z,101370.34
2018-10-19T18:34:29.266Z,101369.48
2018-10-19T18:37:12.498Z,101375.54
2018-10-19T18:39:55.838Z,101379.48
2018-10-19T18:42:39.585Z,101378.62
2018-10-19T18:45:23.010Z,101379.42
2018-10-19T18:48:06.744Z,101377.71
2018-10-19T18:50:50.389Z,101370.38
2018-10-19T18:53:38.317Z,101375.98
2018-10-19T18:56:21.369Z,101376.47
2018-10-19T18:59:04.773Z,101380.70
2018-10-19T19:01:47.969Z,101383.18
2018-10-19T19:04:30.892Z,101388.31
2018-10-19T19:07:14.313Z,101399.09
2018-10-19T19:10:02.292Z,101396.07
2018-10-19T19:12:46.059Z,101401.67
2018-10-19T19:15:29.406Z,101408.12
2018-10-19T19:18:12.463Z,101411.10
2018-10-19T19:20:56.029Z,101410.66
2018-10-19T19:23:44.583Z,101403.77
2018-10-19T19:26:28.567Z,101403.33
2018-10-19T19:29:11.635Z,101403.77
2018-10-19T19:31:57.252Z,101411.12
2018-10-19T19:34:41.073Z,101402.80
2018-10-19T19:37:24.230Z,101408.37
2018-10-19T19:40:07.812Z,101411.73
2018-10-19T19:42:53.262Z,101412.06
2018-10-19T19:45:36.817Z,101411.63
2018-10-19T19:48:24.918Z,101413.71
2018-10-19T19:51:07.573Z,101413.41
2018-10-19T19:53:50.579Z,101407.80
2018-10-19T19:56:34.113Z,101400.14
2018-10-19T19:59:17.432Z,101403.34
2018-10-19T20:02:00.429Z,101415.48
2018-10-19T20:04:44.170Z,101409.28
2018-10-19T20:07:27.431Z,101412.73
2018-10-19T20:10:10.566Z,101417.53
2018-10-19T20:12:53.805Z,101413.07
2018-10-19T20:15:36.812Z,101416.39
2018-10-19T20:18:20.777Z,101415.41
2018-10-19T20:21:04.382Z,101416.67
2018-10-19T20:23:46.826Z,101422.31
2018-10-19T20:26:29.840Z,101419.36
2018-10-19T20:29:13.252Z,101416.59
2018-10-19T20:31:56.093Z,101402.32
2018-10-19T20:34:39.323Z,101421.21
2018-10-19T20:37:22.009Z,101424.71
2018-10-19T20:40:05.905Z,101426.77
2018-10-19T20:42:49.129Z,101423.09
2018-10-19T20:45:32.196Z,101423.91
2018-10-19T20:48:15.678Z,101424.80
2018-10-19T20:50:59.180Z,101427.84
2018-10-19T20:53:42.429Z,101424.38
2018-10-19T20:56:25.316Z,101425.23
2018-10-19T20:59:07.717Z,101427.05
2018-10-19T21:01:50.866Z,101425.25
2018-10-19T21:04:35.810Z,101433.34
2018-10-19T21:07:19.370Z,101444.33
2018-10-19T21:10:02.769Z,101447.78
2018-10-19T21:12:45.986Z,101448.17
2018-10-19T21:15:29.501Z,101447.24
2018-10-19T21:18:12.562Z,101445.36
2018-10-19T21:20:56.116Z,101445.56
2018-10-19T21:23:39.474Z,101449.27
2018-10-19T21:26:22.495Z,101446.09
2018-10-19T21:29:06.512Z,101443.45
2018-10-19T21:31:50.581Z,101438.29
2018-10-19T21:34:35.187Z,101437.73
2018-10-19T21:37:19.111Z,101434.52
2018-10-19T21:40:02.073Z,101434.45
2018-10-19T21:42:46.018Z,101441.13
2018-10-19T21:45:28.877Z,101443.02
2018-10-19T21:48:12.407Z,101445.77
2018-10-19T21:50:56.233Z,101448.76
2018-10-19T21:53:49.026Z,101446.15
2018-10-19T21:56:33.365Z,101446.79
2018-10-19T21:59:17.671Z,101447.72
2018-10-19T22:02:20.392Z,101440.43
2018-10-19T22:05:04.080Z,101441.41
2018-10-19T22:07:46.727Z,101447.69
2018-10-19T22:10:29.781Z,101453.88
2018-10-19T22:13:12.338Z,101457.98
2018-10-19T22:15:55.354Z,101456.39
2018-10-19T22:18:38.346Z,101452.28
2018-10-19T22:21:20.878Z,101465.06
2018-10-19T22:24:03.458Z,101474.43
2018-10-19T22:26:46.450Z,101483.45
2018-10-19T22:29:29.197Z,101485.75
2018-10-19T22:32:12.803Z,101489.05
2018-10-19T22:34:55.601Z,101497.55
2018-10-19T22:37:38.457Z,101494.86
2018-10-19T22:40:21.714Z,101500.73
2018-10-19T22:43:04.785Z,101493.66
2018-10-19T22:45:48.333Z,101485.74
2018-10-19T22:48:31.133Z,101484.75
2018-10-19T22:51:14.277Z,101480.63
2018-10-19T22:53:57.210Z,101473.77
2018-10-19T22:56:40.223Z,101493.14
2018-10-19T22:59:23.139Z,101503.61
2018-10-19T23:02:06.973Z,101512.03
2018-10-19T23:04:49.658Z,101521.78
2018-10-19T23:07:31.961Z,101517.84
2018-10-19T23:10:14.637Z,101516.05
2018-10-19T23:12:57.528Z,101524.44
2018-10-19T23:15:40.067Z,101528.25
2018-10-19T23:18:22.640Z,101528.20
2018-10-19T23:21:05.462Z,101521.81
2018-10-19T23:23:48.103Z,101524.20
2018-10-19T23:26:30.413Z,101519.80
2018-10-19T23:29:13.130Z,101518.89
2018-10-19T23:31:55.989Z,101510.17
2018-10-19T23:34:38.880Z,101514.72
2018-10-19T23:41:07.724Z,101509.99
2018-10-19T23:43:51.561Z,101519.77
2018-10-19T23:46:35.543Z,101510.55
2018-10-19T23:49:19.277Z,101506.14
2018-10-19T23:52:02.596Z,101492.33
2018-10-19T23:54:46.753Z,101481.72
2018-10-19T23:57:30.420Z,101477.84
